sensor_id;sensor_type;location;lat;lon;timestamp;pressure;altitude;pressure_sealevel;temperature;humidity
66945;BME280;53853;51.982;5.928;2022-12-16T00:01:27;100896.44;;;-0.17;69.17
66945;BME280;53853;51.982;5.928;2022-12-16T00:03:58;100894.25;;;-0.09;68.80
66945;BME280;53853;51.982;5.928;2022-12-16T00:06:31;100903.50;;;-0.02;68.88
66945;BME280;53853;51.982;5.928;2022-12-16T00:09:01;100903.84;;;0.08;69.15
66945;BME280;53853;51.982;5.928;2022-12-16T00:11:34;100906.47;;;0.08;69.62
66945;BME280;53853;51.982;5.928;2022-12-16T00:14:04;100903.69;;;0.11;69.12
66945;BME280;53853;51.982;5.928;2022-12-16T00:16:34;100899.28;;;0.12;69.26
66945;BME280;53853;51.982;5.928;2022-12-16T00:19:04;100908.69;;;0.16;69.08
66945;BME280;53853;51.982;5.928;2022-12-16T00:21:34;100908.50;;;0.19;69.17
66945;BME280;53853;51.982;5.928;2022-12-16T00:24:04;100907.59;;;0.20;69.16
66945;BME280;53853;51.982;5.928;2022-12-16T00:26:37;100910.03;;;0.23;68.82
66945;BME280;53853;51.982;5.928;2022-12-16T00:29:07;100908.03;;;0.28;68.63
66945;BME280;53853;51.982;5.928;2022-12-16T00:31:37;100906.03;;;0.33;68.93
66945;BME280;53853;51.982;5.928;2022-12-16T00:34:07;100913.28;;;0.44;68.89
66945;BME280;53853;51.982;5.928;2022-12-16T00:36:37;100906.88;;;0.50;68.45
66945;BME280;53853;51.982;5.928;2022-12-16T00:39:07;100905.88;;;0.52;67.94
66945;BME280;53853;51.982;5.928;2022-12-16T00:41:40;100904.50;;;0.61;67.90
66945;BME280;53853;51.982;5.928;2022-12-16T00:44:10;100917.47;;;0.64;67.47
66945;BME280;53853;51.982;5.928;2022-12-16T00:46:40;100907.38;;;0.72;67.38
66945;BME280;53853;51.982;5.928;2022-12-16T00:49:10;100901.38;;;0.70;67.30
66945;BME280;53853;51.982;5.928;2022-12-16T00:51:40;100894.28;;;0.72;67.02
66945;BME280;53853;51.982;5.928;2022-12-16T00:54:11;100897.75;;;0.73;67.11
66945;BME280;53853;51.982;5.928;2022-12-16T00:56:43;100905.72;;;0.71;66.84
66945;BME280;53853;51.982;5.928;2022-12-16T00:59:13;100901.13;;;0.75;66.64
66945;BME280;53853;51.982;5.928;2022-12-16T01:01:43;100909.84;;;0.76;66.66
66945;BME280;53853;51.982;5.928;2022-12-16T01:04:13;100908.75;;;0.80;66.98
66945;BME280;53853;51.982;5.928;2022-12-16T01:06:43;100908.66;;;0.81;66.72
66945;BME280;53853;51.982;5.928;2022-12-16T01:09:13;100905.69;;;0.87;66.83
66945;BME280;53853;51.982;5.928;2022-12-16T01:11:45;100909.00;;;0.91;67.11
66945;BME280;53853;51.982;5.928;2022-12-16T01:14:15;100899.25;;;0.93;67.12
66945;BME280;53853;51.982;5.928;2022-12-16T01:16:45;100909.00;;;0.91;67.07
66945;BME280;53853;51.982;5.928;2022-12-16T01:19:15;100911.44;;;0.94;66.46
66945;BME280;53853;51.982;5.928;2022-12-16T01:21:45;100913.13;;;0.95;66.85
66945;BME280;53853;51.982;5.928;2022-12-16T01:24:15;100915.41;;;1.01;66.86
66945;BME280;53853;51.982;5.928;2022-12-16T01:26:48;100918.81;;;1.03;66.77
66945;BME280;53853;51.982;5.928;2022-12-16T01:29:18;100919.81;;;1.01;66.53
66945;BME280;53853;51.982;5.928;2022-12-16T01:31:47;100926.06;;;0.98;66.51
66945;BME280;53853;51.982;5.928;2022-12-16T01:34:18;100933.94;;;0.98;66.59
66945;BME280;53853;51.982;5.928;2022-12-16T01:36:48;100944.19;;;1.03;66.38
66945;BME280;53853;51.982;5.928;2022-12-16T01:39:17;100948.34;;;1.07;66.32
66945;BME280;53853;51.982;5.928;2022-12-16T01:41:50;100951.47;;;1.14;66.23
66945;BME280;53853;51.982;5.928;2022-12-16T01:44:22;100951.53;;;1.12;66.06
66945;BME280;53853;51.982;5.928;2022-12-16T01:46:55;100969.50;;;1.20;65.86
66945;BME280;53853;51.982;5.928;2022-12-16T01:49:29;100955.63;;;1.18;65.75
66945;BME280;53853;51.982;5.928;2022-12-16T01:52:03;100957.28;;;1.19;65.64
66945;BME280;53853;51.982;5.928;2022-12-16T01:54:38;100957.22;;;1.20;65.88
66945;BME280;53853;51.982;5.928;2022-12-16T01:57:14;100964.81;;;1.25;65.85
66945;BME280;53853;51.982;5.928;2022-12-16T01:59:47;100961.28;;;1.26;65.61
66945;BME280;53853;51.982;5.928;2022-12-16T02:02:19;100960.34;;;1.27;65.84
66945;BME280;53853;51.982;5.928;2022-12-16T02:04:49;100964.47;;;1.31;65.44
66945;BME280;53853;51.982;5.928;2022-12-16T02:07:38;100967.84;;;1.33;65.10
66945;BME280;53853;51.982;5.928;2022-12-16T02:10:08;100968.63;;;1.35;65.82
66945;BME280;53853;51.982;5.928;2022-12-16T02:12:47;100963.22;;;1.38;65.58
66945;BME280;53853;51.982;5.928;2022-12-16T02:15:28;100971.00;;;1.40;65.59
66945;BME280;53853;51.982;5.928;2022-12-16T02:18:08;100969.97;;;1.42;65.85
66945;BME280;53853;51.982;5.928;2022-12-16T02:30:04;100974.47;;;1.40;65.54
66945;BME280;53853;51.982;5.928;2022-12-16T02:32:43;100982.25;;;1.42;65.35
66945;BME280;53853;51.982;5.928;2022-12-16T02:35:24;100981.34;;;1.43;65.53
66945;BME280;53853;51.982;5.928;2022-12-16T02:38:07;100987.75;;;1.37;65.68
66945;BME280;53853;51.982;5.928;2022-12-16T02:40:42;100987.75;;;1.37;65.65
66945;BME280;53853;51.982;5.928;2022-12-16T02:43:18;100979.81;;;1.39;65.83
66945;BME280;53853;51.982;5.928;2022-12-16T02:45:51;100983.25;;;1.39;65.53
66945;BME280;53853;51.982;5.928;2022-12-16T02:48:24;100987.59;;;1.40;65.35
66945;BME280;53853;51.982;5.928;2022-12-16T02:50:54;100980.47;;;1.42;65.70
66945;BME280;53853;51.982;5.928;2022-12-16T02:53:24;100982.34;;;1.40;65.76
66945;BME280;53853;51.982;5.928;2022-12-16T02:56:01;100991.06;;;1.41;65.71
66945;BME280;53853;51.982;5.928;2022-12-16T02:58:37;100994.28;;;1.46;65.57
66945;BME280;53853;51.982;5.928;2022-12-16T03:01:16;100989.88;;;1.47;65.78
66945;BME280;53853;51.982;5.928;2022-12-16T03:03:57;100991.66;;;1.46;65.51
66945;BME280;53853;51.982;5.928;2022-12-16T03:06:32;100992.59;;;1.45;65.45
66945;BME280;53853;51.982;5.928;2022-12-16T03:09:07;100995.22;;;1.45;65.80
66945;BME280;53853;51.982;5.928;2022-12-16T03:11:40;101003.94;;;1.45;66.66
66945;BME280;53853;51.982;5.928;2022-12-16T03:14:16;101007.44;;;1.46;67.54
66945;BME280;53853;51.982;5.928;2022-12-16T03:16:47;101008.25;;;1.47;68.17
66945;BME280;53853;51.982;5.928;2022-12-16T03:19:21;101007.91;;;1.53;67.71
66945;BME280;53853;51.982;5.928;2022-12-16T03:21:56;101008.44;;;1.43;68.22
66945;BME280;53853;51.982;5.928;2022-12-16T03:24:29;101008.69;;;1.39;68.70
66945;BME280;53853;51.982;5.928;2022-12-16T03:27:06;100999.97;;;1.38;69.00
66945;BME280;53853;51.982;5.928;2022-12-16T03:29:43;101019.03;;;1.42;69.12
66945;BME280;53853;51.982;5.928;2022-12-16T03:32:22;101016.88;;;1.49;68.34
66945;BME280;53853;51.982;5.928;2022-12-16T03:34:58;101017.56;;;1.52;68.31
66945;BME280;53853;51.982;5.928;2022-12-16T03:37:32;101016.53;;;1.55;68.09
66945;BME280;53853;51.982;5.928;2022-12-16T03:40:06;101035.00;;;1.53;68.12
66945;BME280;53853;51.982;5.928;2022-12-16T03:42:39;101035.19;;;1.50;68.98
66945;BME280;53853;51.982;5.928;2022-12-16T03:45:14;101038.56;;;1.52;68.92
66945;BME280;53853;51.982;5.928;2022-12-16T03:47:49;101043.81;;;1.52;68.97
66945;BME280;53853;51.982;5.928;2022-12-16T03:50:25;101052.47;;;1.54;69.23
66945;BME280;53853;51.982;5.928;2022-12-16T03:52:56;101056.53;;;1.60;68.89
66945;BME280;53853;51.982;5.928;2022-12-16T03:55:26;101054.50;;;1.65;68.36
66945;BME280;53853;51.982;5.928;2022-12-16T03:57:56;101051.97;;;1.63;68.23
66945;BME280;53853;51.982;5.928;2022-12-16T04:00:27;101059.75;;;1.65;67.96
66945;BME280;53853;51.982;5.928;2022-12-16T04:02:56;101054.34;;;1.68;67.91
66945;BME280;53853;51.982;5.928;2022-12-16T04:05:29;101061.69;;;1.61;68.80
66945;BME280;53853;51.982;5.928;2022-12-16T04:07:59;101055.69;;;1.59;69.05
66945;BME280;53853;51.982;5.928;2022-12-16T04:10:29;101051.19;;;1.61;68.81
66945;BME280;53853;51.982;5.928;2022-12-16T04:13:11;101057.31;;;1.62;69.03
66945;BME280;53853;51.982;5.928;2022-12-16T04:15:54;101067.81;;;1.62;69.35
66945;BME280;53853;51.982;5.928;2022-12-16T04:18:38;101066.59;;;1.68;69.48
66945;BME280;53853;51.982;5.928;2022-12-16T04:21:23;101065.84;;;1.66;70.53
66945;BME280;53853;51.982;5.928;2022-12-16T04:24:11;101066.69;;;1.66;70.53
66945;BME280;53853;51.982;5.928;2022-12-16T04:26:50;101064.41;;;1.60;71.65
66945;BME280;53853;51.982;5.928;2022-12-16T04:29:32;101064.47;;;1.58;71.76
66945;BME280;53853;51.982;5.928;2022-12-16T04:32:22;101065.34;;;1.59;71.98
66945;BME280;53853;51.982;5.928;2022-12-16T04:34:53;101071.53;;;1.58;72.60
66945;BME280;53853;51.982;5.928;2022-12-16T04:37:22;101066.03;;;1.62;72.65
66945;BME280;53853;51.982;5.928;2022-12-16T04:40:06;101081.03;;;1.60;72.75
66945;BME280;53853;51.982;5.928;2022-12-16T04:42:48;101080.88;;;1.63;73.02
66945;BME280;53853;51.982;5.928;2022-12-16T04:45:31;101083.31;;;1.67;72.54
66945;BME280;53853;51.982;5.928;2022-12-16T04:48:13;101090.41;;;1.65;73.25
66945;BME280;53853;51.982;5.928;2022-12-16T04:50:55;101089.56;;;1.64;73.07
66945;BME280;53853;51.982;5.928;2022-12-16T04:53:40;101086.44;;;1.57;73.95
66945;BME280;53853;51.982;5.928;2022-12-16T04:56:22;101092.22;;;1.64;73.64
66945;BME280;53853;51.982;5.928;2022-12-16T04:59:05;101082.53;;;1.65;72.92
66945;BME280;53853;51.982;5.928;2022-12-16T05:01:47;101087.03;;;1.62;73.28
66945;BME280;53853;51.982;5.928;2022-12-16T05:04:30;101091.38;;;1.63;73.41
66945;BME280;53853;51.982;5.928;2022-12-16T05:07:12;101095.75;;;1.63;73.67
66945;BME280;53853;51.982;5.928;2022-12-16T05:09:57;101093.75;;;1.68;73.02
66945;BME280;53853;51.982;5.928;2022-12-16T05:12:39;101096.38;;;1.68;72.93
66945;BME280;53853;51.982;5.928;2022-12-16T05:15:30;101101.88;;;1.63;73.73
66945;BME280;53853;51.982;5.928;2022-12-16T05:18:14;101096.53;;;1.65;73.07
66945;BME280;53853;51.982;5.928;2022-12-16T05:20:57;101091.38;;;1.63;73.11
66945;BME280;53853;51.982;5.928;2022-12-16T05:23:40;101096.09;;;1.57;74.12
66945;BME280;53853;51.982;5.928;2022-12-16T05:26:25;101097.03;;;1.56;74.33
66945;BME280;53853;51.982;5.928;2022-12-16T05:29:07;101098.88;;;1.54;74.72
66945;BME280;53853;51.982;5.928;2022-12-16T05:31:49;101101.50;;;1.54;74.50
66945;BME280;53853;51.982;5.928;2022-12-16T05:34:32;101103.31;;;1.53;75.13
66945;BME280;53853;51.982;5.928;2022-12-16T05:37:14;101110.44;;;1.51;74.86
66945;BME280;53853;51.982;5.928;2022-12-16T05:39:56;101116.59;;;1.50;74.64
66945;BME280;53853;51.982;5.928;2022-12-16T05:42:45;101119.41;;;1.47;75.44
66945;BME280;53853;51.982;5.928;2022-12-16T05:45:33;101126.88;;;1.55;74.63
66945;BME280;53853;51.982;5.928;2022-12-16T05:48:22;101131.34;;;1.53;74.89
66945;BME280;53853;51.982;5.928;2022-12-16T05:51:04;101130.56;;;1.51;75.45
66945;BME280;53853;51.982;5.928;2022-12-16T05:53:47;101133.97;;;1.53;75.15
66945;BME280;53853;51.982;5.928;2022-12-16T05:56:29;101144.31;;;1.56;74.55
66945;BME280;53853;51.982;5.928;2022-12-16T05:59:14;101141.78;;;1.54;74.81
66945;BME280;53853;51.982;5.928;2022-12-16T06:01:56;101146.25;;;1.52;74.66
66945;BME280;53853;51.982;5.928;2022-12-16T06:04:39;101141.09;;;1.51;74.74
66945;BME280;53853;51.982;5.928;2022-12-16T06:07:21;101144.75;;;1.48;74.19
66945;BME280;53853;51.982;5.928;2022-12-16T06:10:09;101144.16;;;1.43;74.43
66945;BME280;53853;51.982;5.928;2022-12-16T06:12:51;101140.16;;;1.36;74.92
66945;BME280;53853;51.982;5.928;2022-12-16T06:15:36;101144.88;;;1.29;74.78
66945;BME280;53853;51.982;5.928;2022-12-16T06:18:19;101147.09;;;1.21;74.80
66945;BME280;53853;51.982;5.928;2022-12-16T06:21:13;101157.16;;;1.13;75.28
66945;BME280;53853;51.982;5.928;2022-12-16T06:23:55;101152.38;;;1.03;75.74
66945;BME280;53853;51.982;5.928;2022-12-16T06:26:38;101156.31;;;0.95;75.71
66945;BME280;53853;51.982;5.928;2022-12-16T06:29:20;101153.25;;;0.86;75.49
66945;BME280;53853;51.982;5.928;2022-12-16T06:32:05;101154.56;;;0.78;76.33
66945;BME280;53853;51.982;5.928;2022-12-16T06:34:47;101155.81;;;0.70;75.92
66945;BME280;53853;51.982;5.928;2022-12-16T06:37:30;101164.84;;;0.65;76.19
66945;BME280;53853;51.982;5.928;2022-12-16T06:40:12;101166.00;;;0.59;76.59
66945;BME280;53853;51.982;5.928;2022-12-16T06:42:54;101168.72;;;0.58;76.41
66945;BME280;53853;51.982;5.928;2022-12-16T06:45:37;101166.00;;;0.59;75.49
66945;BME280;53853;51.982;5.928;2022-12-16T06:48:22;101178.19;;;0.60;75.13
66945;BME280;53853;51.982;5.928;2022-12-16T06:51:04;101173.88;;;0.59;75.21
66945;BME280;53853;51.982;5.928;2022-12-16T06:53:47;101177.41;;;0.58;75.00
66945;BME280;53853;51.982;5.928;2022-12-16T06:56:29;101188.06;;;0.55;75.77
66945;BME280;53853;51.982;5.928;2022-12-16T06:59:11;101189.16;;;0.51;76.44
66945;BME280;53853;51.982;5.928;2022-12-16T07:01:54;101196.31;;;0.47;76.97
66945;BME280;53853;51.982;5.928;2022-12-16T07:04:39;101191.19;;;0.44;76.81
66945;BME280;53853;51.982;5.928;2022-12-16T07:07:21;101196.59;;;0.41;76.16
66945;BME280;53853;51.982;5.928;2022-12-16T07:10:04;101203.94;;;0.34;76.46
66945;BME280;53853;51.982;5.928;2022-12-16T07:12:46;101201.59;;;0.28;77.27
66945;BME280;53853;51.982;5.928;2022-12-16T07:15:29;101211.94;;;0.31;76.94
66945;BME280;53853;51.982;5.928;2022-12-16T07:18:11;101214.47;;;0.33;76.72
66945;BME280;53853;51.982;5.928;2022-12-16T07:20:56;101216.19;;;0.34;76.28
66945;BME280;53853;51.982;5.928;2022-12-16T07:23:39;101225.13;;;0.30;76.88
66945;BME280;53853;51.982;5.928;2022-12-16T07:26:21;101221.81;;;0.26;76.84
66945;BME280;53853;51.982;5.928;2022-12-16T07:29:03;101232.28;;;0.26;76.65
66945;BME280;53853;51.982;5.928;2022-12-16T07:31:46;101234.16;;;0.24;76.37
66945;BME280;53853;51.982;5.928;2022-12-16T07:34:28;101231.66;;;0.21;77.08
66945;BME280;53853;51.982;5.928;2022-12-16T07:37:13;101238.59;;;0.22;77.14
66945;BME280;53853;51.982;5.928;2022-12-16T07:39:55;101243.06;;;0.20;76.88
66945;BME280;53853;51.982;5.928;2022-12-16T07:42:40;101251.94;;;0.17;77.06
66945;BME280;53853;51.982;5.928;2022-12-16T07:45:23;101245.97;;;0.14;76.47
66945;BME280;53853;51.982;5.928;2022-12-16T07:48:06;101253.84;;;0.14;76.50
66945;BME280;53853;51.982;5.928;2022-12-16T07:50:48;101252.84;;;0.16;76.24
66945;BME280;53853;51.982;5.928;2022-12-16T07:53:33;101253.84;;;0.14;76.26
66945;BME280;53853;51.982;5.928;2022-12-16T07:56:16;101254.13;;;0.08;74.53
66945;BME280;53853;51.982;5.928;2022-12-16T07:58:58;101256.88;;;0.05;74.91
66945;BME280;53853;51.982;5.928;2022-12-16T08:01:40;101268.38;;;0.02;75.26
66945;BME280;53853;51.982;5.928;2022-12-16T08:04:23;101267.34;;;0.05;75.82
66945;BME280;53853;51.982;5.928;2022-12-16T08:07:05;101281.41;;;0.04;75.22
66945;BME280;53853;51.982;5.928;2022-12-16T08:09:50;101285.78;;;0.03;75.62
66945;BME280;53853;51.982;5.928;2022-12-16T08:12:33;101293.44;;;0.08;74.72
66945;BME280;53853;51.982;5.928;2022-12-16T08:15:15;101290.38;;;0.17;74.68
66945;BME280;53853;51.982;5.928;2022-12-16T08:17:57;101299.66;;;0.24;74.84
66945;BME280;53853;51.982;5.928;2022-12-16T08:20:40;101302.56;;;0.37;75.19
66945;BME280;53853;51.982;5.928;2022-12-16T08:23:23;101306.44;;;0.47;75.05
66945;BME280;53853;51.982;5.928;2022-12-16T08:26:08;101314.81;;;0.56;74.92
66945;BME280;53853;51.982;5.928;2022-12-16T08:28:50;101314.41;;;0.63;74.66
66945;BME280;53853;51.982;5.928;2022-12-16T08:31:32;101313.69;;;0.79;73.91
66945;BME280;53853;51.982;5.928;2022-12-16T08:34:15;101314.53;;;0.97;73.57
66945;BME280;53853;51.982;5.928;2022-12-16T08:36:57;101313.00;;;1.10;72.88
66945;BME280;53853;51.982;5.928;2022-12-16T08:39:39;101330.63;;;1.25;72.14
66945;BME280;53853;51.982;5.928;2022-12-16T08:42:24;101321.34;;;1.36;71.22
66945;BME280;53853;51.982;5.928;2022-12-16T08:45:07;101324.78;;;1.54;71.55
66945;BME280;53853;51.982;5.928;2022-12-16T08:47:50;101327.72;;;1.65;71.50
66945;BME280;53853;51.982;5.928;2022-12-16T08:50:32;101341.53;;;1.69;70.37
66945;BME280;53853;51.982;5.928;2022-12-16T08:53:15;101338.50;;;1.76;70.21
66945;BME280;53853;51.982;5.928;2022-12-16T08:55:57;101340.91;;;1.81;70.23
66945;BME280;53853;51.982;5.928;2022-12-16T08:58:42;101352.84;;;1.87;70.13
66945;BME280;53853;51.982;5.928;2022-12-16T09:01:24;101351.94;;;1.88;70.23
66945;BME280;53853;51.982;5.928;2022-12-16T09:04:07;101356.25;;;1.89;69.86
66945;BME280;53853;51.982;5.928;2022-12-16T09:06:49;101359.66;;;1.91;69.66
66945;BME280;53853;51.982;5.928;2022-12-16T09:09:31;101362.88;;;1.96;69.68
66945;BME280;53853;51.982;5.928;2022-12-16T09:12:13;101361.56;;;2.05;68.21
66945;BME280;53853;51.982;5.928;2022-12-16T09:14:58;101361.66;;;2.03;68.09
66945;BME280;53853;51.982;5.928;2022-12-16T09:17:41;101360.78;;;2.03;68.25
66945;BME280;53853;51.982;5.928;2022-12-16T09:20:26;101367.16;;;1.98;68.32
66945;BME280;53853;51.982;5.928;2022-12-16T09:23:08;101366.34;;;1.96;68.52
66945;BME280;53853;51.982;5.928;2022-12-16T09:25:50;101374.06;;;1.99;68.78
66945;BME280;53853;51.982;5.928;2022-12-16T09:28:33;101373.75;;;2.06;68.73
66945;BME280;53853;51.982;5.928;2022-12-16T09:31:18;101378.94;;;2.07;69.16
66945;BME280;53853;51.982;5.928;2022-12-16T09:34:00;101385.91;;;2.08;69.29
66945;BME280;53853;51.982;5.928;2022-12-16T09:36:42;101384.03;;;2.10;69.49
66945;BME280;53853;51.982;5.928;2022-12-16T09:39:25;101394.53;;;2.10;69.28
66945;BME280;53853;51.982;5.928;2022-12-16T09:42:14;101403.13;;;2.14;69.35
66945;BME280;53853;51.982;5.928;2022-12-16T09:45:04;101411.78;;;2.16;69.50
66945;BME280;53853;51.982;5.928;2022-12-16T09:47:59;101413.78;;;2.11;69.33
66945;BME280;53853;51.982;5.928;2022-12-16T09:50:46;101424.47;;;2.08;69.31
66945;BME280;53853;51.982;5.928;2022-12-16T09:53:33;101423.78;;;2.04;69.24
66945;BME280;53853;51.982;5.928;2022-12-16T09:56:25;101428.22;;;2.04;69.32
66945;BME280;53853;51.982;5.928;2022-12-16T09:59:12;101435.84;;;2.08;69.41
66945;BME280;53853;51.982;5.928;2022-12-16T10:01:55;101437.59;;;2.08;69.50
66945;BME280;53853;51.982;5.928;2022-12-16T10:04:40;101437.53;;;2.09;69.61
66945;BME280;53853;51.982;5.928;2022-12-16T10:07:26;101435.38;;;2.17;69.75
66945;BME280;53853;51.982;5.928;2022-12-16T10:10:19;101435.38;;;2.17;69.58
66945;BME280;53853;51.982;5.928;2022-12-16T10:13:08;101439.94;;;2.14;69.75
66945;BME280;53853;51.982;5.928;2022-12-16T10:16:00;101445.09;;;2.15;69.92
66945;BME280;53853;51.982;5.928;2022-12-16T10:18:50;101447.81;;;2.14;70.05
66945;BME280;53853;51.982;5.928;2022-12-16T10:21:44;101447.88;;;2.12;70.14
66945;BME280;53853;51.982;5.928;2022-12-16T10:24:37;101446.06;;;2.14;70.05
66945;BME280;53853;51.982;5.928;2022-12-16T10:27:25;101454.88;;;2.13;70.39
66945;BME280;53853;51.982;5.928;2022-12-16T10:30:12;101453.88;;;2.16;70.57
66945;BME280;53853;51.982;5.928;2022-12-16T10:32:54;101459.66;;;2.23;71.20
66945;BME280;53853;51.982;5.928;2022-12-16T10:35:42;101460.91;;;2.31;71.60
66945;BME280;53853;51.982;5.928;2022-12-16T10:38:34;101453.41;;;2.41;71.63
66945;BME280;53853;51.982;5.928;2022-12-16T10:41:18;101448.44;;;2.52;71.60
66945;BME280;53853;51.982;5.928;2022-12-16T10:44:03;101457.59;;;2.61;71.16
66945;BME280;53853;51.982;5.928;2022-12-16T10:46:47;101449.19;;;2.70;70.99
66945;BME280;53853;51.982;5.928;2022-12-16T10:49:29;101459.22;;;2.80;71.15
66945;BME280;53853;51.982;5.928;2022-12-16T10:52:12;101460.66;;;2.85;70.40
66945;BME280;53853;51.982;5.928;2022-12-16T10:55:04;101455.84;;;2.94;69.86
66945;BME280;53853;51.982;5.928;2022-12-16T10:57:58;101456.34;;;3.00;69.43
66945;BME280;53853;51.982;5.928;2022-12-16T11:00:45;101460.56;;;3.03;69.07
66945;BME280;53853;51.982;5.928;2022-12-16T11:03:29;101458.56;;;3.08;68.97
66945;BME280;53853;51.982;5.928;2022-12-16T11:06:15;101453.88;;;3.13;68.94
66945;BME280;53853;51.982;5.928;2022-12-16T11:09:24;101453.44;;;3.21;68.31
66945;BME280;53853;51.982;5.928;2022-12-16T11:12:20;101455.63;;;3.29;68.33
66945;BME280;53853;51.982;5.928;2022-12-16T11:15:19;101452.56;;;3.36;68.36
66945;BME280;53853;51.982;5.928;2022-12-16T11:18:04;101459.00;;;3.47;68.49
66945;BME280;53853;51.982;5.928;2022-12-16T11:21:04;101451.94;;;3.47;68.00
66945;BME280;53853;51.982;5.928;2022-12-16T11:23:47;101465.88;;;3.49;68.52
66945;BME280;53853;51.982;5.928;2022-12-16T11:26:35;101462.03;;;3.55;68.64
66945;BME280;53853;51.982;5.928;2022-12-16T11:29:48;101459.13;;;3.59;68.40
66945;BME280;53853;51.982;5.928;2022-12-16T11:32:32;101466.50;;;3.69;68.56
66945;BME280;53853;51.982;5.928;2022-12-16T11:35:16;101463.59;;;3.73;68.47
66945;BME280;53853;51.982;5.928;2022-12-16T11:38:00;101470.28;;;3.79;68.33
66945;BME280;53853;51.982;5.928;2022-12-16T11:40:43;101468.41;;;3.81;68.16
66945;BME280;53853;51.982;5.928;2022-12-16T11:43:27;101465.53;;;3.86;68.62
66945;BME280;53853;51.982;5.928;2022-12-16T11:46:23;101463.28;;;3.94;68.50
66945;BME280;53853;51.982;5.928;2022-12-16T11:49:12;101466.47;;;3.99;68.70
66945;BME280;53853;51.982;5.928;2022-12-16T11:51:59;101464.31;;;4.06;68.82
66945;BME280;53853;51.982;5.928;2022-12-16T11:54:49;101471.50;;;4.18;68.18
66945;BME280;53853;51.982;5.928;2022-12-16T11:57:52;101473.84;;;4.23;68.01
66945;BME280;53853;51.982;5.928;2022-12-16T12:00:44;101473.09;;;4.21;68.00
66945;BME280;53853;51.982;5.928;2022-12-16T12:03:41;101470.28;;;4.24;68.13
66945;BME280;53853;51.982;5.928;2022-12-16T12:06:35;101469.59;;;4.20;68.16
66945;BME280;53853;51.982;5.928;2022-12-16T12:09:25;101472.16;;;4.22;68.32
66945;BME280;53853;51.982;5.928;2022-12-16T12:12:16;101464.31;;;4.20;68.45
66945;BME280;53853;51.982;5.928;2022-12-16T12:15:09;101466.88;;;4.22;68.45
66945;BME280;53853;51.982;5.928;2022-12-16T12:18:01;101466.97;;;4.20;68.60
66945;BME280;53853;51.982;5.928;2022-12-16T12:20:53;101473.84;;;4.23;68.48
66945;BME280;53853;51.982;5.928;2022-12-16T12:23:45;101483.56;;;4.22;68.52
66945;BME280;53853;51.982;5.928;2022-12-16T12:26:33;101484.50;;;4.21;68.53
66945;BME280;53853;51.982;5.928;2022-12-16T12:29:21;101478.09;;;4.25;68.15
66945;BME280;53853;51.982;5.928;2022-12-16T12:32:18;101489.50;;;4.26;68.07
66945;BME280;53853;51.982;5.928;2022-12-16T12:35:08;101489.59;;;4.24;68.09
66945;BME280;53853;51.982;5.928;2022-12-16T12:37:59;101485.44;;;4.20;67.83
66945;BME280;53853;51.982;5.928;2022-12-16T12:40:51;101496.06;;;4.18;67.71
66945;BME280;53853;51.982;5.928;2022-12-16T12:43:45;101492.78;;;4.15;67.77
66945;BME280;53853;51.982;5.928;2022-12-16T12:46:32;101498.78;;;4.03;67.93
66945;BME280;53853;51.982;5.928;2022-12-16T12:49:23;101500.94;;;3.96;68.56
66945;BME280;53853;51.982;5.928;2022-12-16T12:52:16;101498.66;;;3.90;69.20
66945;BME280;53853;51.982;5.928;2022-12-16T12:55:08;101502.25;;;3.89;69.42
66945;BME280;53853;51.982;5.928;2022-12-16T12:57:52;101509.13;;;3.91;70.07
66945;BME280;53853;51.982;5.928;2022-12-16T13:00:40;101517.59;;;3.96;69.67
66945;BME280;53853;51.982;5.928;2022-12-16T13:03:29;101507.75;;;4.00;69.53
66945;BME280;53853;51.982;5.928;2022-12-16T13:06:14;101520.84;;;4.02;68.89
66945;BME280;53853;51.982;5.928;2022-12-16T13:08:58;101521.59;;;4.04;69.00
66945;BME280;53853;51.982;5.928;2022-12-16T13:15:06;101519.13;;;4.01;69.06
66945;BME280;53853;51.982;5.928;2022-12-16T13:18:18;101523.66;;;3.98;69.38
66945;BME280;53853;51.982;5.928;2022-12-16T13:21:01;101525.25;;;4.01;69.73
66945;BME280;53853;51.982;5.928;2022-12-16T13:23:44;101527.53;;;4.07;69.12
66945;BME280;53853;51.982;5.928;2022-12-16T13:26:29;101539.78;;;4.08;68.88
66945;BME280;53853;51.982;5.928;2022-12-16T13:29:20;101537.41;;;4.04;68.87
66945;BME280;53853;51.982;5.928;2022-12-16T13:32:14;101544.41;;;4.05;68.75
66945;BME280;53853;51.982;5.928;2022-12-16T13:35:01;101538.44;;;4.01;68.85
66945;BME280;53853;51.982;5.928;2022-12-16T13:37:51;101542.19;;;3.97;69.21
66945;BME280;53853;51.982;5.928;2022-12-16T13:40:48;101541.25;;;3.98;69.06
66945;BME280;53853;51.982;5.928;2022-12-16T13:43:47;101535.13;;;3.97;69.46
66945;BME280;53853;51.982;5.928;2022-12-16T13:46:43;101538.03;;;3.93;69.85
66945;BME280;53853;51.982;5.928;2022-12-16T13:49:45;101542.38;;;3.94;69.72
66945;BME280;53853;51.982;5.928;2022-12-16T13:52:37;101553.94;;;3.91;70.18
66945;BME280;53853;51.982;5.928;2022-12-16T13:55:27;101544.94;;;3.95;70.00
66945;BME280;53853;51.982;5.928;2022-12-16T13:58:19;101547.75;;;3.92;69.78
66945;BME280;53853;51.982;5.928;2022-12-16T14:01:08;101557.53;;;3.90;70.09
66945;BME280;53853;51.982;5.928;2022-12-16T14:03:56;101558.47;;;3.89;70.11
66945;BME280;53853;51.982;5.928;2022-12-16T14:06:40;101562.13;;;3.87;70.39
66945;BME280;53853;51.982;5.928;2022-12-16T14:09:41;101564.84;;;3.85;70.17
66945;BME280;53853;51.982;5.928;2022-12-16T14:15:45;101566.06;;;3.79;70.33
66945;BME280;53853;51.982;5.928;2022-12-16T14:18:39;101575.34;;;3.71;71.17
66945;BME280;53853;51.982;5.928;2022-12-16T14:21:31;101579.94;;;3.67;71.71
66945;BME280;53853;51.982;5.928;2022-12-16T14:24:21;101584.28;;;3.68;71.37
66945;BME280;53853;51.982;5.928;2022-12-16T14:27:09;101577.97;;;3.71;70.87
66945;BME280;53853;51.982;5.928;2022-12-16T14:29:53;101601.59;;;3.72;71.04
66945;BME280;53853;51.982;5.928;2022-12-16T14:32:36;101594.81;;;3.68;71.29
66945;BME280;53853;51.982;5.928;2022-12-16T14:35:19;101602.81;;;3.67;71.53